createdAt,value
2019-02-21T00:01:15.786Z,33.92
2019-02-21T00:03:44.172Z,33.81
2019-02-21T00:06:12.591Z,33.83
2019-02-21T00:08:40.989Z,34.00
2019-02-21T00:11:09.396Z,33.90
2019-02-21T00:13:37.874Z,33.78
2019-02-21T00:16:06.392Z,33.76
2019-02-21T00:18:34.854Z,33.96
2019-02-21T00:21:03.246Z,33.83
2019-02-21T00:23:31.660Z,33.97
2019-02-21T00:26:00.109Z,33.86
2019-02-21T00:28:28.506Z,33.80
2019-02-21T00:30:56.910Z,33.84
2019-02-21T00:33:25.437Z,33.88
2019-02-21T00:35:53.870Z,33.87
2019-02-21T00:38:22.257Z,33.97
2019-02-21T00:40:50.681Z,34.01
2019-02-21T00:43:19.075Z,33.95
2019-02-21T00:45:47.530Z,33.89
2019-02-21T00:48:15.904Z,33.85
2019-02-21T00:50:44.335Z,33.99
2019-02-21T00:53:12.744Z,33.79
2019-02-21T00:55:41.157Z,33.80
2019-02-21T00:58:09.544Z,33.74
2019-02-21T01:00:46.068Z,33.99
2019-02-21T01:03:08.080Z,33.92
2019-02-21T01:05:36.616Z,33.91
2019-02-21T01:08:05.290Z,33.98
2019-02-21T01:10:33.715Z,33.82
2019-02-21T01:13:02.137Z,33.91
2019-02-21T01:15:30.646Z,33.87
2019-02-21T01:17:59.041Z,33.74
2019-02-21T01:20:27.500Z,33.90
2019-02-21T01:22:55.890Z,33.84
2019-02-21T01:25:24.312Z,33.86
2019-02-21T01:27:52.713Z,33.96
2019-02-21T01:30:21.189Z,33.71
2019-02-21T01:32:49.588Z,33.86
2019-02-21T01:35:18.009Z,33.92
2019-02-21T01:37:46.408Z,34.03
2019-02-21T01:40:14.865Z,33.95
2019-02-21T01:42:43.252Z,33.90
2019-02-21T01:45:11.675Z,33.92
2019-02-21T01:47:40.062Z,33.97
2019-02-21T01:50:08.972Z,33.89
2019-02-21T01:52:37.367Z,33.90
2019-02-21T01:55:08.495Z,33.90
2019-02-21T01:57:36.887Z,33.90
2019-02-21T02:00:08.601Z,33.79
2019-02-21T02:02:36.989Z,33.77
2019-02-21T02:05:07.466Z,33.69
2019-02-21T02:07:35.858Z,33.76
2019-02-21T02:10:04.948Z,33.94
2019-02-21T02:12:33.404Z,33.94
2019-02-21T02:15:01.827Z,34.05
2019-02-21T02:17:30.209Z,33.93
2019-02-21T02:19:58.738Z,33.90
2019-02-21T02:22:27.200Z,34.00
2019-02-21T02:24:55.602Z,33.80
2019-02-21T02:27:24.003Z,33.84
2019-02-21T02:29:52.414Z,33.84
2019-02-21T02:32:20.938Z,33.88
2019-02-21T02:34:49.328Z,33.86
2019-02-21T02:37:17.799Z,33.97
2019-02-21T02:39:46.197Z,33.71
2019-02-21T02:42:14.616Z,33.91
2019-02-21T02:44:43.015Z,33.88
2019-02-21T02:47:11.432Z,33.77
2019-02-21T02:49:39.844Z,33.86
2019-02-21T02:52:08.290Z,33.77
2019-02-21T02:54:36.710Z,33.80
2019-02-21T02:57:05.108Z,33.88
2019-02-21T02:59:40.826Z,33.74
2019-02-21T03:02:03.681Z,33.71
2019-02-21T03:04:32.100Z,33.82
2019-02-21T03:07:00.507Z,33.87
2019-02-21T03:09:28.894Z,33.70
2019-02-21T03:11:57.344Z,33.66
2019-02-21T03:14:25.826Z,33.82
2019-02-21T03:16:54.211Z,33.77
2019-02-21T03:19:22.644Z,33.77
2019-02-21T03:21:51.057Z,33.89
2019-02-21T03:24:19.452Z,33.80
2019-02-21T03:26:47.940Z,33.72
2019-02-21T03:29:16.396Z,33.70
2019-02-21T03:31:54.693Z,33.66
2019-02-21T03:34:14.931Z,33.78
2019-02-21T03:36:43.353Z,33.88
2019-02-21T03:39:11.754Z,33.76
2019-02-21T03:41:40.178Z,33.81
2019-02-21T03:44:08.572Z,33.84
2019-02-21T03:46:37.106Z,33.76
2019-02-21T03:49:05.504Z,33.80
2019-02-21T03:51:33.914Z,33.63
2019-02-21T03:54:02.310Z,33.64
2019-02-21T03:56:30.827Z,33.82
2019-02-21T03:58:59.216Z,33.72
2019-02-21T04:01:27.614Z,33.80
2019-02-21T04:03:56.038Z,33.79
2019-02-21T04:06:24.592Z,33.88
2019-02-21T04:08:52.985Z,33.87
2019-02-21T04:11:21.463Z,33.97
2019-02-21T04:13:49.921Z,33.85
2019-02-21T04:16:18.365Z,33.87
2019-02-21T04:18:46.813Z,33.84
2019-02-21T04:21:15.223Z,33.74
2019-02-21T04:23:43.627Z,33.83
2019-02-21T04:26:12.187Z,33.90
2019-02-21T04:28:40.572Z,33.95
2019-02-21T04:31:09.001Z,33.72
2019-02-21T04:33:37.398Z,33.78
2019-02-21T04:36:05.817Z,33.87
2019-02-21T04:38:34.207Z,33.79
2019-02-21T04:41:02.616Z,33.79
2019-02-21T04:43:31.092Z,33.83
2019-02-21T04:45:59.519Z,33.90
2019-02-21T04:48:27.904Z,33.89
2019-02-21T04:50:56.314Z,33.86
2019-02-21T04:53:24.723Z,33.68
2019-02-21T04:55:53.144Z,33.80
2019-02-21T04:58:21.543Z,33.83
2019-02-21T05:00:49.966Z,33.80
2019-02-21T05:03:18.364Z,33.88
2019-02-21T05:05:46.739Z,33.87
2019-02-21T05:08:15.155Z,33.89
2019-02-21T05:10:43.558Z,33.87
2019-02-21T05:13:12.006Z,33.96
2019-02-21T05:15:40.402Z,33.80
2019-02-21T05:18:08.827Z,33.87
2019-02-21T05:20:37.242Z,33.89
2019-02-21T05:23:05.683Z,33.78
2019-02-21T05:25:34.100Z,33.92
2019-02-21T05:28:04.158Z,33.95
2019-02-21T05:30:32.799Z,33.87
2019-02-21T05:33:05.662Z,33.84
2019-02-21T05:35:41.718Z,33.82
2019-02-21T05:38:14.230Z,33.77
2019-02-21T05:40:44.282Z,33.72
2019-02-21T05:43:14.511Z,33.92
2019-02-21T05:45:56.873Z,33.62
2019-02-21T05:48:32.944Z,33.81
2019-02-21T05:51:15.025Z,33.82
2019-02-21T05:53:50.865Z,33.93
2019-02-21T05:56:39.100Z,33.69
2019-02-21T05:59:25.717Z,33.77
2019-02-21T06:01:55.778Z,33.76
2019-02-21T06:04:44.279Z,33.84
2019-02-21T06:07:14.297Z,33.97
2019-02-21T06:09:44.343Z,33.88
2019-02-21T06:12:17.192Z,33.98
2019-02-21T06:14:57.433Z,33.91
2019-02-21T06:17:27.471Z,33.79
2019-02-21T06:20:13.429Z,33.81
2019-02-21T06:22:43.472Z,33.79
2019-02-21T06:25:13.550Z,33.82
2019-02-21T06:27:43.731Z,33.76
2019-02-21T06:30:13.777Z,33.80
2019-02-21T06:32:42.209Z,33.79
2019-02-21T06:35:11.377Z,34.33
2019-02-21T06:37:39.771Z,34.21
2019-02-21T06:40:08.205Z,34.24
2019-02-21T06:42:36.594Z,34.18
2019-02-21T06:45:06.276Z,33.99
2019-02-21T06:47:34.671Z,34.11
2019-02-21T06:50:03.070Z,34.08
2019-02-21T06:52:31.509Z,34.03
2019-02-21T06:55:02.085Z,33.90
2019-02-21T06:57:30.044Z,33.79
2019-02-21T06:59:58.436Z,33.76
2019-02-21T07:02:28.110Z,33.69
2019-02-21T07:04:56.934Z,33.64
2019-02-21T07:07:25.360Z,33.57
2019-02-21T07:09:53.759Z,33.49
2019-02-21T07:12:22.179Z,33.47
2019-02-21T07:14:50.575Z,33.43
2019-02-21T07:17:18.989Z,33.42
2019-02-21T07:19:47.390Z,33.32
2019-02-21T07:22:18.054Z,33.32
2019-02-21T07:24:47.527Z,33.23
2019-02-21T07:27:15.952Z,33.21
2019-02-21T07:29:44.344Z,33.15
2019-02-21T07:32:12.841Z,33.15
2019-02-21T07:34:41.232Z,33.12
2019-02-21T07:37:18.055Z,33.06
2019-02-21T07:39:39.791Z,33.07
2019-02-21T07:42:08.228Z,33.05
2019-02-21T07:44:36.633Z,33.02
2019-02-21T07:47:05.061Z,32.97
2019-02-21T07:49:33.453Z,32.86
2019-02-21T07:52:01.898Z,32.91
2019-02-21T07:54:30.278Z,32.93
2019-02-21T07:56:58.729Z,33.01
2019-02-21T07:59:27.180Z,32.94
2019-02-21T08:01:55.589Z,32.97
2019-02-21T08:04:23.987Z,32.99
2019-02-21T08:06:55.392Z,33.00
2019-02-21T08:09:22.594Z,32.92
2019-02-21T08:11:50.983Z,32.89
2019-02-21T08:14:19.576Z,32.88
2019-02-21T08:16:47.962Z,32.87
2019-02-21T08:19:16.353Z,32.85
2019-02-21T08:21:44.847Z,32.85
2019-02-21T08:24:13.272Z,32.79
2019-02-21T08:26:41.662Z,32.65
2019-02-21T08:29:10.121Z,32.75
2019-02-21T08:31:38.511Z,32.73
2019-02-21T08:34:17.579Z,32.72
2019-02-21T08:36:46.069Z,32.70
2019-02-21T08:39:14.549Z,32.65
2019-02-21T08:41:43.002Z,32.80
2019-02-21T08:44:11.405Z,32.66
2019-02-21T08:46:39.785Z,32.68
2019-02-21T08:49:08.308Z,32.61
2019-02-21T08:51:36.788Z,32.51
2019-02-21T08:54:05.770Z,32.43
2019-02-21T08:56:34.604Z,32.52
2019-02-21T08:59:02.998Z,32.53
2019-02-21T09:01:31.407Z,32.43
2019-02-21T09:04:10.184Z,32.39
2019-02-21T09:06:29.977Z,32.42
2019-02-21T09:08:58.381Z,32.40
2019-02-21T09:11:26.918Z,32.39
2019-02-21T09:13:55.929Z,32.31
2019-02-21T09:16:24.557Z,32.30
2019-02-21T09:18:53.000Z,32.21
2019-02-21T09:21:21.396Z,32.12
2019-02-21T09:23:49.786Z,32.04
2019-02-21T09:26:18.322Z,32.00
2019-02-21T09:28:46.715Z,31.97
2019-02-21T09:31:15.109Z,31.90
2019-02-21T09:33:43.898Z,31.84
2019-02-21T09:36:12.551Z,31.70
2019-02-21T09:38:40.932Z,31.58
2019-02-21T09:41:09.381Z,31.40
2019-02-21T09:43:37.780Z,31.46
2019-02-21T09:46:06.171Z,31.35
2019-02-21T09:48:34.613Z,31.39
2019-02-21T09:51:03.070Z,31.34
2019-02-21T09:53:31.477Z,31.22
2019-02-21T09:55:59.947Z,31.18
2019-02-21T09:58:28.428Z,31.01
2019-02-21T10:00:56.909Z,30.94
2019-02-21T10:03:25.361Z,30.92
2019-02-21T10:05:53.760Z,30.88
2019-02-21T10:08:22.196Z,30.81
2019-02-21T10:10:50.592Z,30.72
2019-02-21T10:13:18.976Z,30.60
2019-02-21T10:15:47.373Z,30.51
2019-02-21T10:18:16.005Z,30.41
2019-02-21T10:20:44.390Z,30.42
2019-02-21T10:23:12.770Z,30.35
2019-02-21T10:25:41.222Z,30.34
2019-02-21T10:28:09.607Z,30.27
2019-02-21T10:30:38.040Z,30.14
2019-02-21T10:33:06.488Z,30.05
2019-02-21T10:35:34.938Z,29.94
2019-02-21T10:38:03.326Z,29.89
2019-02-21T10:40:33.447Z,29.85
2019-02-21T10:43:01.903Z,29.86
2019-02-21T10:45:30.289Z,29.61
2019-02-21T10:47:58.737Z,29.71
2019-02-21T10:50:27.148Z,29.69
2019-02-21T10:52:55.548Z,29.54
2019-02-21T10:55:24.149Z,29.57
2019-02-21T10:57:52.535Z,29.55
2019-02-21T11:00:26.615Z,29.53
2019-02-21T11:02:55.328Z,29.53
2019-02-21T11:05:23.722Z,29.53
2019-02-21T11:07:52.138Z,29.48
2019-02-21T11:10:27.068Z,29.52
2019-02-21T11:12:57.078Z,29.50
2019-02-21T11:15:25.954Z,29.52
2019-02-21T11:17:54.409Z,29.46
2019-02-21T11:20:23.067Z,29.51
2019-02-21T11:22:51.451Z,29.42
2019-02-21T11:25:19.960Z,29.50
2019-02-21T11:27:48.361Z,29.48
2019-02-21T11:30:20.669Z,29.43
2019-02-21T11:32:49.120Z,29.47
2019-02-21T11:35:17.485Z,29.42
2019-02-21T11:37:47.396Z,29.47
2019-02-21T11:40:17.930Z,29.39
2019-02-21T11:42:46.388Z,29.40
2019-02-21T11:45:19.182Z,29.44
2019-02-21T11:47:47.770Z,29.47
2019-02-21T11:50:17.393Z,29.41
2019-02-21T11:52:45.779Z,29.33
2019-02-21T11:55:16.817Z,29.34
2019-02-21T11:57:45.277Z,29.41
2019-02-21T12:00:25.849Z,29.45
2019-02-21T12:02:54.243Z,29.40
2019-02-21T12:05:30.327Z,29.42
2019-02-21T12:07:53.769Z,29.39
2019-02-21T12:10:22.155Z,29.37
2019-02-21T12:12:50.612Z,29.30
2019-02-21T12:15:19.121Z,29.33
2019-02-21T12:17:47.509Z,29.17
2019-02-21T12:20:17.344Z,29.23
2019-02-21T12:22:45.771Z,29.17
2019-02-21T12:25:22.361Z,29.10
2019-02-21T12:27:50.814Z,28.99
2019-02-21T12:30:20.087Z,28.97
2019-02-21T12:32:48.483Z,28.98
2019-02-21T12:35:16.908Z,28.97
2019-02-21T12:37:45.442Z,28.91
2019-02-21T12:40:19.376Z,28.89
2019-02-21T12:42:47.779Z,28.83
2019-02-21T12:45:18.719Z,28.91
2019-02-21T12:47:52.807Z,28.87
2019-02-21T12:50:17.291Z,28.81
2019-02-21T12:52:45.739Z,28.80
2019-02-21T12:55:26.475Z,28.71
2019-02-21T12:57:44.913Z,28.77
2019-02-21T13:00:16.129Z,28.76
2019-02-21T13:02:44.529Z,28.76
2019-02-21T13:05:13.018Z,28.77
2019-02-21T13:07:41.490Z,28.78
2019-02-21T13:10:12.349Z,28.83
2019-02-21T13:12:40.729Z,28.79
2019-02-21T13:15:11.715Z,28.79
2019-02-21T13:17:40.152Z,28.75
2019-02-21T13:20:10.781Z,28.80
2019-02-21T13:22:39.239Z,28.84
2019-02-21T13:25:10.325Z,28.90
2019-02-21T13:27:38.740Z,28.86
2019-02-21T13:30:12.632Z,28.89
2019-02-21T13:32:41.031Z,28.88
2019-02-21T13:35:10.355Z,28.94
2019-02-21T13:37:38.794Z,28.84
2019-02-21T13:40:10.227Z,28.87
2019-02-21T13:42:38.629Z,28.89
2019-02-21T13:45:08.694Z,28.88
2019-02-21T13:47:39.160Z,28.83
2019-02-21T13:50:13.124Z,28.83
2019-02-21T13:52:41.588Z,28.83
2019-02-21T13:55:09.986Z,28.85
2019-02-21T13:57:38.377Z,28.86
2019-02-21T14:00:21.030Z,28.81
2019-02-21T14:02:49.425Z,28.90
2019-02-21T14:05:17.818Z,28.90
2019-02-21T14:07:46.289Z,28.97
2019-02-21T14:10:14.994Z,28.91
2019-02-21T14:12:44.755Z,28.96
2019-02-21T14:15:16.393Z,28.94
2019-02-21T14:17:46.615Z,28.91
2019-02-21T14:20:14.961Z,28.97
2019-02-21T14:22:43.402Z,28.95
2019-02-21T14:25:12.147Z,28.93
2019-02-21T14:27:40.617Z,29.01
2019-02-21T14:30:12.237Z,28.89
2019-02-21T14:32:40.628Z,28.97
2019-02-21T14:35:11.250Z,28.96
2019-02-21T14:37:39.799Z,28.94
2019-02-21T14:40:10.884Z,28.88
2019-02-21T14:42:39.277Z,28.84
2019-02-21T14:45:12.317Z,28.86
2019-02-21T14:47:41.064Z,28.98
2019-02-21T14:50:11.495Z,28.94
2019-02-21T14:52:39.942Z,28.92
2019-02-21T14:55:10.874Z,28.95
2019-02-21T14:57:41.183Z,28.92
2019-02-21T15:00:13.214Z,28.97
2019-02-21T15:02:41.601Z,28.95
2019-02-21T15:05:10.251Z,28.95
2019-02-21T15:07:38.712Z,28.96
2019-02-21T15:10:09.239Z,28.92
2019-02-21T15:12:37.625Z,28.92
2019-02-21T15:15:09.324Z,28.97
2019-02-21T15:17:37.719Z,28.97
2019-02-21T15:20:09.304Z,28.99
2019-02-21T15:22:37.834Z,28.96
2019-02-21T15:25:08.233Z,29.02
2019-02-21T15:27:36.622Z,28.99
2019-02-21T15:30:11.198Z,28.95
2019-02-21T15:32:39.594Z,28.91
2019-02-21T15:35:07.982Z,28.92
2019-02-21T15:37:36.418Z,28.95
2019-02-21T15:40:08.812Z,28.92
2019-02-21T15:42:37.422Z,28.98
2019-02-21T15:45:23.402Z,28.95
2019-02-21T15:47:48.549Z,28.97
2019-02-21T15:50:19.936Z,28.96
2019-02-21T15:52:48.324Z,29.00
2019-02-21T15:55:19.318Z,29.01
2019-02-21T15:57:47.705Z,29.02
2019-02-21T16:00:20.399Z,29.01
2019-02-21T16:02:49.069Z,29.04
2019-02-21T16:05:17.460Z,29.04
2019-02-21T16:07:45.900Z,29.06
2019-02-21T16:10:20.041Z,29.12
2019-02-21T16:12:48.767Z,29.12
2019-02-21T16:15:17.750Z,29.10
2019-02-21T16:17:46.152Z,29.14
2019-02-21T16:20:19.390Z,29.14
2019-02-21T16:22:47.991Z,29.18
2019-02-21T16:25:22.453Z,29.16
2019-02-21T16:27:50.856Z,29.21
2019-02-21T16:30:21.918Z,29.22
2019-02-21T16:32:49.401Z,29.25
2019-02-21T16:35:17.816Z,29.26
2019-02-21T16:37:46.209Z,29.27
2019-02-21T16:40:17.862Z,29.30
2019-02-21T16:42:46.313Z,29.30
2019-02-21T16:45:21.872Z,29.31
2019-02-21T16:47:50.265Z,29.30
2019-02-21T16:50:29.277Z,29.35
2019-02-21T16:52:48.857Z,29.42
2019-02-21T16:55:21.992Z,29.41
2019-02-21T16:57:50.420Z,29.46
2019-02-21T17:00:23.401Z,29.45
2019-02-21T17:02:52.049Z,29.51
2019-02-21T17:05:20.524Z,29.51
2019-02-21T17:07:48.974Z,29.52
2019-02-21T17:10:17.699Z,29.53
2019-02-21T17:12:46.084Z,29.51
2019-02-21T17:15:18.127Z,29.56
2019-02-21T17:17:46.510Z,29.57
2019-02-21T17:20:25.006Z,29.58
2019-02-21T17:22:53.601Z,29.59
2019-02-21T17:25:21.986Z,29.57
2019-02-21T17:27:50.825Z,29.61
2019-02-21T17:30:19.673Z,29.60
2019-02-21T17:32:48.050Z,29.60
2019-02-21T17:35:16.482Z,29.61
2019-02-21T17:37:44.873Z,29.59
2019-02-21T17:40:24.161Z,29.62
2019-02-21T17:42:52.548Z,29.64
2019-02-21T17:45:20.981Z,29.63
2019-02-21T17:47:49.657Z,29.66
2019-02-21T17:50:18.882Z,29.67
2019-02-21T17:52:47.319Z,29.67
2019-02-21T17:55:16.665Z,29.71
2019-02-21T17:57:45.096Z,29.71
2019-02-21T18:00:20.690Z,29.68
2019-02-21T18:02:49.131Z,29.71
2019-02-21T18:05:17.584Z,29.72
2019-02-21T18:07:46.035Z,29.72
2019-02-21T18:10:15.859Z,29.75
2019-02-21T18:12:44.244Z,29.75
2019-02-21T18:15:14.267Z,29.74
2019-02-21T18:17:42.819Z,29.76
2019-02-21T18:20:12.853Z,29.79
2019-02-21T18:22:41.243Z,29.81
2019-02-21T18:25:34.396Z,29.96
2019-02-21T18:28:02.797Z,30.04
2019-02-21T18:30:31.325Z,30.34
2019-02-21T18:32:59.722Z,30.57
2019-02-21T18:35:28.125Z,30.76
2019-02-21T18:37:56.534Z,31.08
2019-02-21T18:40:28.504Z,31.20
2019-02-21T18:42:56.958Z,31.40
2019-02-21T18:45:25.365Z,31.48
2019-02-21T18:47:53.748Z,31.63
2019-02-21T18:50:22.229Z,31.76
2019-02-21T18:52:50.625Z,31.83
2019-02-21T18:55:19.214Z,32.04
2019-02-21T18:57:47.621Z,32.09
2019-02-21T19:00:22.049Z,32.31
2019-02-21T19:02:50.451Z,32.33
2019-02-21T19:05:19.048Z,32.42
2019-02-21T19:08:00.435Z,32.54
2019-02-21T19:10:23.113Z,32.81
2019-02-21T19:12:51.520Z,32.58
2019-02-21T19:15:21.071Z,32.73
2019-02-21T19:17:49.478Z,32.74
2019-02-21T19:20:19.381Z,32.80
2019-02-21T19:22:47.782Z,32.82
2019-02-21T19:25:16.208Z,33.20
2019-02-21T19:27:44.730Z,33.11
2019-02-21T19:30:19.003Z,33.29
2019-02-21T19:32:47.405Z,32.99
2019-02-21T19:35:16.226Z,33.17
2019-02-21T19:37:44.688Z,33.29
2019-02-21T19:40:13.178Z,33.16
2019-02-21T19:42:41.650Z,33.31
2019-02-21T19:45:10.299Z,33.22
2019-02-21T19:47:38.696Z,33.28
2019-02-21T19:50:08.931Z,33.17
2019-02-21T19:52:37.390Z,33.14
2019-02-21T19:55:08.390Z,33.14
2019-02-21T19:57:36.780Z,33.22
2019-02-21T20:00:21.487Z,33.35
2019-02-21T20:02:49.875Z,33.28
2019-02-21T20:05:22.067Z,33.05
2019-02-21T20:07:50.797Z,33.17
2019-02-21T20:10:19.463Z,33.27
2019-02-21T20:12:47.867Z,33.16
2019-02-21T20:15:17.982Z,33.39
2019-02-21T20:17:46.540Z,33.17
2019-02-21T20:20:28.057Z,33.40
2019-02-21T20:22:57.698Z,33.68
2019-02-21T20:25:26.105Z,33.68
2019-02-21T20:27:54.524Z,33.63
2019-02-21T20:30:23.475Z,33.76
2019-02-21T20:32:51.857Z,33.73
2019-02-21T20:35:20.408Z,33.55
2019-02-21T20:37:48.813Z,33.58
2019-02-21T20:40:17.228Z,33.67
2019-02-21T20:42:45.696Z,33.73
2019-02-21T20:45:15.180Z,33.72
2019-02-21T20:47:44.736Z,33.75
2019-02-21T20:50:13.311Z,33.80
2019-02-21T20:52:41.715Z,33.78
2019-02-21T20:55:11.231Z,33.79
2019-02-21T20:57:39.810Z,33.80
2019-02-21T21:00:13.201Z,33.81
2019-02-21T21:02:41.594Z,33.91
2019-02-21T21:05:11.644Z,33.81
2019-02-21T21:07:40.183Z,33.57
2019-02-21T21:10:12.423Z,33.89
2019-02-21T21:12:40.880Z,33.93
2019-02-21T21:15:10.873Z,33.99
2019-02-21T21:17:39.402Z,33.92
2019-02-21T21:20:16.468Z,34.15
2019-02-21T21:22:41.281Z,34.05
2019-02-21T21:25:12.215Z,34.12
2019-02-21T21:27:40.679Z,34.15
2019-02-21T21:30:11.404Z,34.10
2019-02-21T21:32:39.913Z,34.33
2019-02-21T21:35:08.312Z,34.22
2019-02-21T21:37:38.326Z,34.43
2019-02-21T21:40:09.921Z,34.32
2019-02-21T21:42:38.437Z,34.26
2019-02-21T21:45:10.085Z,34.38
2019-02-21T21:47:38.477Z,34.40
2019-02-21T21:50:09.510Z,34.57
2019-02-21T21:52:37.935Z,34.47
2019-02-21T21:55:06.387Z,34.58
2019-02-21T21:57:34.778Z,34.78
2019-02-21T22:00:05.282Z,34.87
2019-02-21T22:02:33.671Z,34.82
2019-02-21T22:05:02.072Z,34.90
2019-02-21T22:07:30.457Z,34.63
2019-02-21T22:09:58.845Z,34.75
2019-02-21T22:12:27.276Z,34.85
2019-02-21T22:14:55.664Z,34.98
2019-02-21T22:17:24.066Z,34.92
2019-02-21T22:19:52.456Z,34.79
2019-02-21T22:22:20.955Z,34.79
2019-02-21T22:24:49.441Z,34.97
2019-02-21T22:27:17.830Z,34.97
2019-02-21T22:29:46.260Z,35.02
2019-02-21T22:32:14.655Z,34.77
2019-02-21T22:34:43.060Z,35.05
2019-02-21T22:37:11.466Z,35.25
2019-02-21T22:39:39.702Z,34.99
2019-02-21T22:42:08.105Z,34.92
2019-02-21T22:44:36.544Z,34.97
2019-02-21T22:47:04.978Z,34.86
2019-02-21T22:49:33.374Z,34.97
2019-02-21T22:52:01.770Z,35.00
2019-02-21T22:54:30.185Z,34.87
2019-02-21T22:56:58.578Z,35.02
2019-02-21T22:59:27.022Z,34.96
2019-02-21T23:01:55.754Z,34.87
2019-02-21T23:04:26.997Z,34.96
2019-02-21T23:07:04.586Z,34.96
2019-02-21T23:09:33.065Z,34.97
2019-02-21T23:12:01.448Z,34.95
2019-02-21T23:14:29.849Z,34.87
2019-02-21T23:16:58.230Z,35.00
2019-02-21T23:19:26.622Z,34.84
2019-02-21T23:21:55.023Z,34.91
2019-02-21T23:24:23.479Z,34.92
2019-02-21T23:26:51.874Z,34.93
2019-02-21T23:29:20.260Z,34.83
2019-02-21T23:31:48.738Z,34.85
2019-02-21T23:34:18.770Z,34.85
2019-02-21T23:36:47.160Z,34.82
2019-02-21T23:39:15.584Z,34.81
2019-02-21T23:41:43.968Z,34.80
2019-02-21T23:44:12.363Z,34.86
2019-02-21T23:46:40.752Z,34.83
2019-02-21T23:49:09.216Z,34.78
2019-02-21T23:51:37.604Z,34.72
2019-02-21T23:54:05.999Z,34.76
2019-02-21T23:56:34.385Z,34.68
2019-02-21T23:59:02.782Z,34.74
